createdAt,value
2018-07-19T00:01:43.575Z,95495.00
2018-07-19T00:04:12.925Z,95505.00
2018-07-19T00:06:42.865Z,95489.00
2018-07-19T00:09:12.240Z,95500.00
2018-07-19T00:11:41.628Z,95491.00
2018-07-19T00:14:11.062Z,95492.00
2018-07-19T00:16:40.512Z,95490.00
2018-07-19T00:19:09.920Z,95504.00
2018-07-19T00:21:39.325Z,95494.00
2018-07-19T00:24:09.051Z,95489.00
2018-07-19T00:26:38.450Z,95495.00
2018-07-19T00:29:07.852Z,95498.00
2018-07-19T00:31:37.348Z,95482.00
2018-07-19T00:34:06.756Z,95485.00
2018-07-19T00:36:36.129Z,95484.00
2018-07-19T00:39:08.180Z,95483.00
2018-07-19T00:41:37.774Z,95484.00
2018-07-19T00:44:06.871Z,95482.00
2018-07-19T00:46:35.972Z,95486.00
2018-07-19T00:49:05.288Z,95488.00
2018-07-19T00:51:34.704Z,95478.00
2018-07-19T00:54:04.107Z,95481.00
2018-07-19T00:56:33.467Z,95478.00
2018-07-19T00:59:02.914Z,95480.00
2018-07-19T01:01:32.375Z,95486.00
2018-07-19T01:04:01.738Z,95479.00
2018-07-19T01:06:31.088Z,95477.00
2018-07-19T01:09:01.133Z,95479.00
2018-07-19T01:11:30.530Z,95478.00
2018-07-19T01:13:59.903Z,95472.00
2018-07-19T01:16:29.832Z,95475.00
2018-07-19T01:18:59.255Z,95471.00
2018-07-19T01:21:28.645Z,95476.00
2018-07-19T01:23:58.070Z,95476.00
2018-07-19T01:26:27.507Z,95474.00
2018-07-19T01:28:56.873Z,95472.00
2018-07-19T01:31:26.377Z,95476.00
2018-07-19T01:33:55.809Z,95478.00
2018-07-19T01:36:25.195Z,95475.00
2018-07-19T01:38:54.719Z,95485.00
2018-07-19T01:43:36.955Z,95480.00
2018-07-19T01:46:06.877Z,95477.00
2018-07-19T01:48:35.951Z,95479.00
2018-07-19T01:51:05.289Z,95483.00
2018-07-19T01:53:34.815Z,95479.00
2018-07-19T01:56:04.213Z,95483.00
2018-07-19T01:58:33.953Z,95484.00
2018-07-19T02:01:04.048Z,95475.00
2018-07-19T02:03:33.378Z,95479.00
2018-07-19T02:06:02.846Z,95483.00
2018-07-19T02:08:32.910Z,95480.00
2018-07-19T02:11:02.280Z,95477.00
2018-07-19T02:13:31.694Z,95478.00
2018-07-19T02:16:01.114Z,95488.00
2018-07-19T02:18:30.553Z,95479.00
2018-07-19T02:20:59.906Z,95480.00
2018-07-19T02:23:29.336Z,95481.00
2018-07-19T02:25:58.844Z,95485.00
2018-07-19T02:28:28.173Z,95486.00
2018-07-19T02:30:58.067Z,95484.00
2018-07-19T02:33:27.519Z,95491.00
2018-07-19T02:35:56.997Z,95484.00
2018-07-19T02:38:26.340Z,95488.00
2018-07-19T02:40:55.682Z,95485.00
2018-07-19T02:43:25.091Z,95483.00
2018-07-19T02:45:54.153Z,95484.00
2018-07-19T02:48:23.519Z,95481.00
2018-07-19T02:50:53.095Z,95477.00
2018-07-19T02:53:22.601Z,95473.00
2018-07-19T02:55:51.957Z,95472.00
2018-07-19T02:58:21.316Z,95471.00
2018-07-19T03:00:50.664Z,95470.00
2018-07-19T03:03:20.489Z,95472.00
2018-07-19T03:05:50.340Z,95469.00
2018-07-19T03:08:19.872Z,95472.00
2018-07-19T03:10:50.121Z,95467.00
2018-07-19T03:13:19.414Z,95470.00
2018-07-19T03:15:48.781Z,95467.00
2018-07-19T03:18:18.132Z,95475.00
2018-07-19T03:20:47.609Z,95468.00
2018-07-19T03:23:17.223Z,95471.00
2018-07-19T03:25:46.720Z,95481.00
2018-07-19T03:28:16.198Z,95475.00
2018-07-19T03:30:45.533Z,95480.00
2018-07-19T03:33:15.526Z,95477.00
2018-07-19T03:35:45.004Z,95477.00
2018-07-19T03:38:14.506Z,95473.00
2018-07-19T03:40:43.899Z,95473.00
2018-07-19T03:43:13.354Z,95471.00
2018-07-19T03:45:42.766Z,95473.00
2018-07-19T03:48:12.242Z,95470.00
2018-07-19T03:50:41.667Z,95474.00
2018-07-19T03:53:11.048Z,95474.00
2018-07-19T03:55:40.407Z,95484.00
2018-07-19T03:58:10.251Z,95482.00
2018-07-19T04:00:40.205Z,95484.00
2018-07-19T04:03:09.604Z,95489.00
2018-07-19T04:05:38.929Z,95487.00
2018-07-19T04:08:08.283Z,95489.00
2018-07-19T04:10:37.699Z,95483.00
2018-07-19T04:13:07.128Z,95475.00
2018-07-19T04:15:36.728Z,95480.00
2018-07-19T04:18:06.602Z,95482.00
2018-07-19T04:20:36.798Z,95488.00
2018-07-19T04:23:06.333Z,95479.00
2018-07-19T04:25:35.758Z,95493.00
2018-07-19T04:28:05.145Z,95487.00
2018-07-19T04:30:35.037Z,95491.00
2018-07-19T04:33:04.465Z,95493.00
2018-07-19T04:35:33.831Z,95496.00
2018-07-19T04:38:03.255Z,95495.00
2018-07-19T04:40:32.768Z,95486.00
2018-07-19T04:43:02.111Z,95485.00
2018-07-19T04:45:31.455Z,95487.00
2018-07-19T04:48:00.504Z,95488.00
2018-07-19T04:50:30.428Z,95492.00
2018-07-19T04:52:59.945Z,95500.00
2018-07-19T04:55:29.258Z,95504.00
2018-07-19T04:57:58.316Z,95498.00
2018-07-19T05:00:27.738Z,95495.00
2018-07-19T05:02:57.116Z,95495.00
2018-07-19T05:05:26.490Z,95498.00
2018-07-19T05:07:55.964Z,95490.00
2018-07-19T05:10:25.045Z,95491.00
2018-07-19T05:12:54.548Z,95499.00
2018-07-19T05:15:24.086Z,95502.00
2018-07-19T05:17:54.170Z,95502.00
2018-07-19T05:20:23.631Z,95508.00
2018-07-19T05:22:53.062Z,95507.00
2018-07-19T05:25:22.414Z,95518.00
2018-07-19T05:27:52.074Z,95523.00
2018-07-19T05:30:21.563Z,95514.00
2018-07-19T05:32:51.041Z,95520.00
2018-07-19T05:35:20.642Z,95524.00
2018-07-19T05:37:50.051Z,95527.00
2018-07-19T05:40:19.463Z,95514.00
2018-07-19T05:42:50.121Z,95520.00
2018-07-19T05:45:19.621Z,95520.00
2018-07-19T05:47:48.982Z,95524.00
2018-07-19T05:50:18.514Z,95526.00
2018-07-19T05:52:48.191Z,95519.00
2018-07-19T05:55:17.576Z,95529.00
2018-07-19T05:57:46.946Z,95523.00
2018-07-19T06:00:16.400Z,95528.00
2018-07-19T06:02:45.918Z,95516.00
2018-07-19T06:05:15.298Z,95519.00
2018-07-19T06:07:44.703Z,95524.00
2018-07-19T06:10:13.790Z,95522.00
2018-07-19T06:12:43.208Z,95521.00
2018-07-19T06:15:12.667Z,95517.00
2018-07-19T06:17:42.186Z,95536.00
2018-07-19T06:20:11.799Z,95531.00
2018-07-19T06:22:41.200Z,95531.00
2018-07-19T06:25:10.653Z,95528.00
2018-07-19T06:27:40.127Z,95526.00
2018-07-19T06:30:09.181Z,95529.00
2018-07-19T06:32:38.628Z,95529.00
2018-07-19T06:35:08.045Z,95522.00
2018-07-19T06:37:37.429Z,95523.00
2018-07-19T06:40:06.831Z,95520.00
2018-07-19T06:42:36.007Z,95512.00
2018-07-19T06:45:05.576Z,95524.00
2018-07-19T06:47:34.948Z,95522.00
2018-07-19T06:50:04.506Z,95528.00
2018-07-19T06:52:33.922Z,95529.00
2018-07-19T06:55:03.602Z,95531.00
2018-07-19T06:57:33.050Z,95533.00
2018-07-19T07:00:02.367Z,95524.00
2018-07-19T07:02:32.363Z,95522.00
2018-07-19T07:05:01.733Z,95524.00
2018-07-19T07:07:32.459Z,95524.00
2018-07-19T07:10:01.862Z,95520.00
2018-07-19T07:12:31.364Z,95523.00
2018-07-19T07:15:00.964Z,95531.00
2018-07-19T07:17:30.045Z,95531.00
2018-07-19T07:19:59.555Z,95523.00
2018-07-19T07:22:28.921Z,95532.00
2018-07-19T07:24:58.315Z,95529.00
2018-07-19T07:27:27.664Z,95528.00
2018-07-19T07:29:57.379Z,95525.00
2018-07-19T07:32:26.779Z,95523.00
2018-07-19T07:34:56.646Z,95526.00
2018-07-19T07:37:26.106Z,95530.00
2018-07-19T07:39:55.492Z,95531.00
2018-07-19T07:42:25.015Z,95529.00
2018-07-19T07:44:54.418Z,95531.00
2018-07-19T07:47:23.953Z,95536.00
2018-07-19T07:49:53.326Z,95529.00
2018-07-19T07:52:22.773Z,95526.00
2018-07-19T07:54:52.146Z,95533.00
2018-07-19T07:57:21.584Z,95530.00
2018-07-19T07:59:51.690Z,95540.00
2018-07-19T08:02:21.227Z,95535.00
2018-07-19T08:04:50.543Z,95533.00
2018-07-19T08:07:19.968Z,95534.00
2018-07-19T08:09:49.388Z,95530.00
2018-07-19T08:12:19.387Z,95529.00
2018-07-19T08:14:48.785Z,95532.00
2018-07-19T08:17:18.267Z,95531.00
2018-07-19T08:19:49.056Z,95530.00
2018-07-19T08:22:18.395Z,95523.00
2018-07-19T08:24:47.906Z,95530.00
2018-07-19T08:27:17.408Z,95531.00
2018-07-19T08:29:46.922Z,95532.00
2018-07-19T08:32:16.325Z,95530.00
2018-07-19T08:34:45.682Z,95532.00
2018-07-19T08:37:15.218Z,95530.00
2018-07-19T08:39:44.808Z,95535.00
2018-07-19T08:42:14.166Z,95523.00
2018-07-19T08:44:43.578Z,95534.00
2018-07-19T08:47:15.156Z,95526.00
2018-07-19T08:49:46.322Z,95538.00
2018-07-19T08:52:16.830Z,95534.00
2018-07-19T08:54:46.928Z,95529.00
2018-07-19T08:57:16.858Z,95533.00
2018-07-19T08:59:46.305Z,95531.00
2018-07-19T09:02:15.712Z,95530.00
2018-07-19T09:04:45.687Z,95533.00
2018-07-19T09:07:15.135Z,95536.00
2018-07-19T09:09:44.544Z,95532.00
2018-07-19T09:12:14.059Z,95529.00
2018-07-19T09:14:43.421Z,95537.00
2018-07-19T09:17:12.831Z,95531.00
2018-07-19T09:19:42.264Z,95531.00
2018-07-19T09:22:11.668Z,95537.00
2018-07-19T09:24:41.071Z,95539.00
2018-07-19T09:27:11.565Z,95532.00
2018-07-19T09:29:40.925Z,95536.00
2018-07-19T09:32:11.524Z,95539.00
2018-07-19T09:34:41.049Z,95533.00
2018-07-19T09:37:10.461Z,95529.00
2018-07-19T09:39:39.825Z,95533.00
2018-07-19T09:42:09.840Z,95533.00
2018-07-19T09:44:39.187Z,95540.00
2018-07-19T09:47:08.585Z,95536.00
2018-07-19T09:49:38.545Z,95531.00
2018-07-19T09:52:08.000Z,95529.00
2018-07-19T09:54:55.404Z,95528.00
2018-07-19T09:57:25.872Z,95533.00
2018-07-19T09:59:55.385Z,95530.00
2018-07-19T10:02:25.350Z,95524.00
2018-07-19T10:04:54.910Z,95524.00
2018-07-19T10:07:24.313Z,95527.00
2018-07-19T10:09:53.721Z,95535.00
2018-07-19T10:12:23.098Z,95532.00
2018-07-19T10:14:52.564Z,95536.00
2018-07-19T10:17:22.145Z,95538.00
2018-07-19T10:19:51.546Z,95534.00
2018-07-19T10:22:20.992Z,95534.00
2018-07-19T10:24:50.915Z,95532.00
2018-07-19T10:27:20.359Z,95532.00
2018-07-19T10:29:49.798Z,95540.00
2018-07-19T10:32:19.299Z,95529.00
2018-07-19T10:34:48.694Z,95533.00
2018-07-19T10:37:18.099Z,95534.00
2018-07-19T10:39:47.504Z,95534.00
2018-07-19T10:42:18.379Z,95526.00
2018-07-19T10:44:48.542Z,95521.00
2018-07-19T10:47:18.733Z,95530.00
2018-07-19T10:49:48.757Z,95527.00
2018-07-19T10:52:18.183Z,95534.00
2018-07-19T10:54:49.432Z,95533.00
2018-07-19T10:57:19.418Z,95535.00
2018-07-19T10:59:48.761Z,95523.00
2018-07-19T11:02:18.131Z,95523.00
2018-07-19T11:04:47.501Z,95526.00
2018-07-19T11:07:16.917Z,95521.00
2018-07-19T11:09:47.673Z,95524.00
2018-07-19T11:12:17.416Z,95518.00
2018-07-19T11:14:46.770Z,95519.00
2018-07-19T11:17:16.239Z,95519.00
2018-07-19T11:19:46.391Z,95518.00
2018-07-19T11:22:15.891Z,95512.00
2018-07-19T11:24:45.297Z,95517.00
2018-07-19T11:27:16.006Z,95516.00
2018-07-19T11:29:45.393Z,95511.00
2018-07-19T11:32:14.745Z,95509.00
2018-07-19T11:34:44.094Z,95513.00
2018-07-19T11:37:14.117Z,95507.00
2018-07-19T11:39:44.099Z,95507.00
2018-07-19T11:42:13.491Z,95511.00
2018-07-19T11:44:43.212Z,95509.00
2018-07-19T11:47:12.728Z,95499.00
2018-07-19T11:49:42.164Z,95508.00
2018-07-19T11:52:11.566Z,95507.00
2018-07-19T11:54:41.430Z,95498.00
2018-07-19T11:57:10.844Z,95497.00
2018-07-19T11:59:40.049Z,95503.00
2018-07-19T12:02:09.362Z,95496.00
2018-07-19T12:04:38.712Z,95496.00
2018-07-19T12:07:08.183Z,95504.00
2018-07-19T12:09:37.701Z,95495.00
2018-07-19T12:12:07.313Z,95488.00
2018-07-19T12:14:36.792Z,95488.00
2018-07-19T12:17:06.299Z,95479.00
2018-07-19T12:19:35.659Z,95482.00
2018-07-19T12:22:05.163Z,95480.00
2018-07-19T12:24:34.751Z,95478.00
2018-07-19T12:27:04.269Z,95476.00
2018-07-19T12:29:33.761Z,95473.00
2018-07-19T12:32:03.319Z,95471.00
2018-07-19T12:34:32.803Z,95477.00
2018-07-19T12:37:02.198Z,95471.00
2018-07-19T12:39:31.636Z,95471.00
2018-07-19T12:42:01.040Z,95469.00
2018-07-19T12:44:30.363Z,95467.00
2018-07-19T12:46:59.914Z,95475.00
2018-07-19T12:49:30.149Z,95470.00
2018-07-19T12:51:59.582Z,95472.00
2018-07-19T12:54:28.667Z,95474.00
2018-07-19T12:56:58.114Z,95462.00
2018-07-19T12:59:27.620Z,95470.00
2018-07-19T13:01:57.018Z,95458.00
2018-07-19T13:04:26.553Z,95469.00
2018-07-19T13:06:55.976Z,95471.00
2018-07-19T13:09:25.566Z,95463.00
2018-07-19T13:11:55.264Z,95449.00
2018-07-19T13:14:25.496Z,95448.00
2018-07-19T13:16:54.735Z,95449.00
2018-07-19T13:19:24.067Z,95449.00
2018-07-19T13:21:53.678Z,95452.00
2018-07-19T13:24:23.321Z,95459.00
2018-07-19T13:26:52.771Z,95454.00
2018-07-19T13:29:22.277Z,95462.00
2018-07-19T13:31:51.640Z,95464.00
2018-07-19T13:34:21.111Z,95460.00
2018-07-19T13:36:50.527Z,95448.00
2018-07-19T13:39:19.909Z,95462.00
2018-07-19T13:41:49.372Z,95459.00
2018-07-19T13:44:19.301Z,95452.00
2018-07-19T13:46:49.421Z,95449.00
2018-07-19T13:49:19.444Z,95448.00
2018-07-19T13:51:49.440Z,95440.00
2018-07-19T13:54:32.032Z,95445.00
2018-07-19T13:57:02.222Z,95440.00
2018-07-19T13:59:31.880Z,95442.00
2018-07-19T14:02:01.978Z,95436.00
2018-07-19T14:04:32.543Z,95431.00
2018-07-19T14:07:02.051Z,95433.00
2018-07-19T14:09:32.539Z,95433.00
2018-07-19T14:12:03.161Z,95434.00
2018-07-19T14:14:34.082Z,95429.00
2018-07-19T14:17:03.536Z,95426.00
2018-07-19T14:19:34.189Z,95424.00
2018-07-19T14:22:03.586Z,95420.00
2018-07-19T14:24:32.970Z,95430.00
2018-07-19T14:27:02.371Z,95421.00
2018-07-19T14:29:32.278Z,95419.00
2018-07-19T14:32:01.795Z,95425.00
2018-07-19T14:34:31.193Z,95417.00
2018-07-19T14:37:00.599Z,95416.00
2018-07-19T14:39:30.081Z,95421.00
2018-07-19T14:41:59.554Z,95415.00
2018-07-19T14:44:28.848Z,95409.00
2018-07-19T14:46:58.813Z,95413.00
2018-07-19T14:49:28.319Z,95419.00
2018-07-19T14:51:57.817Z,95409.00
2018-07-19T14:54:27.397Z,95413.00
2018-07-19T14:56:56.897Z,95412.00
2018-07-19T14:59:26.224Z,95414.00
2018-07-19T15:01:55.665Z,95409.00
2018-07-19T15:04:25.185Z,95409.00
2018-07-19T15:06:54.535Z,95415.00
2018-07-19T15:09:23.567Z,95408.00
2018-07-19T15:11:52.939Z,95404.00
2018-07-19T15:14:23.067Z,95405.00
2018-07-19T15:16:52.489Z,95399.00
2018-07-19T15:19:22.119Z,95400.00
2018-07-19T15:21:51.696Z,95403.00
2018-07-19T15:24:22.032Z,95401.00
2018-07-19T15:26:51.448Z,95400.00
2018-07-19T15:29:21.669Z,95395.00
2018-07-19T15:31:51.149Z,95389.00
2018-07-19T15:34:20.885Z,95387.00
2018-07-19T15:36:50.353Z,95387.00
2018-07-19T15:39:19.894Z,95391.00
2018-07-19T15:41:49.446Z,95378.00
2018-07-19T15:44:19.065Z,95383.00
2018-07-19T15:46:48.547Z,95374.00
2018-07-19T15:49:18.175Z,95383.00
2018-07-19T15:51:47.637Z,95376.00
2018-07-19T15:54:17.084Z,95383.00
2018-07-19T15:56:46.639Z,95373.00
2018-07-19T15:59:16.012Z,95377.00
2018-07-19T16:01:45.598Z,95376.00
2018-07-19T16:04:14.991Z,95371.00
2018-07-19T16:06:44.451Z,95380.00
2018-07-19T16:09:13.820Z,95375.00
2018-07-19T16:11:43.289Z,95382.00
2018-07-19T16:14:12.667Z,95381.00
2018-07-19T16:16:42.099Z,95369.00
2018-07-19T16:19:11.898Z,95370.00
2018-07-19T16:21:41.248Z,95371.00
2018-07-19T16:24:10.741Z,95366.00
2018-07-19T16:26:40.282Z,95367.00
2018-07-19T16:29:09.634Z,95372.00
2018-07-19T16:31:39.068Z,95372.00
2018-07-19T16:34:08.500Z,95372.00
2018-07-19T16:36:38.152Z,95364.00
2018-07-19T16:39:09.968Z,95367.00
2018-07-19T16:41:39.892Z,95359.00
2018-07-19T16:44:09.786Z,95366.00
2018-07-19T16:46:39.139Z,95359.00
2018-07-19T16:49:08.553Z,95358.00
2018-07-19T16:51:38.098Z,95352.00
2018-07-19T16:54:07.626Z,95351.00
2018-07-19T16:56:37.753Z,95350.00
2018-07-19T16:59:07.068Z,95350.00
2018-07-19T17:01:36.447Z,95350.00
2018-07-19T17:04:06.118Z,95342.00
2018-07-19T17:06:35.703Z,95352.00
2018-07-19T17:09:08.024Z,95356.00
2018-07-19T17:11:37.501Z,95347.00
2018-07-19T17:14:07.367Z,95345.00
2018-07-19T17:16:36.768Z,95352.00
2018-07-19T17:19:06.709Z,95352.00
2018-07-19T17:21:36.149Z,95346.00
2018-07-19T17:24:06.148Z,95350.00
2018-07-19T17:26:36.063Z,95354.00
2018-07-19T17:29:05.538Z,95350.00
2018-07-19T17:31:35.637Z,95351.00
2018-07-19T17:34:05.001Z,95353.00
2018-07-19T17:36:34.529Z,95346.00
2018-07-19T17:39:06.594Z,95348.00
2018-07-19T17:41:36.131Z,95360.00
2018-07-19T17:44:06.429Z,95355.00
2018-07-19T17:46:36.381Z,95359.00
2018-07-19T17:49:06.389Z,95363.00
2018-07-19T17:51:35.962Z,95360.00
2018-07-19T17:54:05.397Z,95367.00
2018-07-19T17:56:34.838Z,95363.00
2018-07-19T17:59:03.937Z,95357.00
2018-07-19T18:01:33.342Z,95360.00
2018-07-19T18:04:02.705Z,95357.00
2018-07-19T18:06:32.114Z,95370.00
2018-07-19T18:09:01.966Z,95366.00
2018-07-19T18:11:32.190Z,95368.00
2018-07-19T18:14:01.540Z,95362.00
2018-07-19T18:16:36.510Z,95362.00
2018-07-19T18:19:08.652Z,95366.00
2018-07-19T18:21:38.109Z,95379.00
2018-07-19T18:24:07.609Z,95377.00
2018-07-19T18:26:38.104Z,95375.00
2018-07-19T18:29:08.273Z,95367.00
2018-07-19T18:31:42.897Z,95367.00
2018-07-19T18:34:12.112Z,95371.00
2018-07-19T18:36:41.823Z,95369.00
2018-07-19T18:39:16.394Z,95376.00
2018-07-19T18:41:46.068Z,95379.00
2018-07-19T18:44:16.282Z,95384.00
2018-07-19T18:46:45.403Z,95371.00
2018-07-19T18:49:14.799Z,95377.00
2018-07-19T18:51:44.137Z,95372.00
2018-07-19T18:54:13.568Z,95376.00
2018-07-19T18:56:43.057Z,95379.00
2018-07-19T18:59:12.614Z,95383.00
2018-07-19T19:01:42.846Z,95373.00
2018-07-19T19:04:12.255Z,95385.00
2018-07-19T19:06:41.678Z,95388.00
2018-07-19T19:09:12.029Z,95388.00
2018-07-19T19:11:41.515Z,95388.00
2018-07-19T19:14:11.293Z,95392.00
2018-07-19T19:16:41.467Z,95390.00
2018-07-19T19:19:10.906Z,95393.00
2018-07-19T19:21:40.485Z,95391.00
2018-07-19T19:24:09.995Z,95388.00
2018-07-19T19:26:39.148Z,95388.00
2018-07-19T19:29:09.393Z,95390.00
2018-07-19T19:31:39.002Z,95393.00
2018-07-19T19:34:09.144Z,95404.00
2018-07-19T19:36:38.670Z,95402.00
2018-07-19T19:39:11.265Z,95395.00
2018-07-19T19:41:41.148Z,95397.00
2018-07-19T19:44:11.495Z,95399.00
2018-07-19T19:46:40.856Z,95402.00
2018-07-19T19:49:10.312Z,95400.00
2018-07-19T19:51:39.921Z,95402.00
2018-07-19T19:54:10.297Z,95409.00
2018-07-19T19:56:39.760Z,95400.00
2018-07-19T19:59:09.204Z,95409.00
2018-07-19T20:01:38.762Z,95397.00
2018-07-19T20:04:08.369Z,95402.00
2018-07-19T20:06:37.828Z,95403.00
2018-07-19T20:09:11.741Z,95399.00
2018-07-19T20:11:41.216Z,95403.00
2018-07-19T20:14:11.464Z,95408.00
2018-07-19T20:16:41.301Z,95409.00
2018-07-19T20:19:10.663Z,95408.00
2018-07-19T20:21:40.283Z,95408.00
2018-07-19T20:24:09.704Z,95415.00
2018-07-19T20:26:39.109Z,95409.00
2018-07-19T20:29:08.637Z,95409.00
2018-07-19T20:31:38.203Z,95413.00
2018-07-19T20:34:07.785Z,95413.00
2018-07-19T20:36:37.843Z,95403.00
2018-07-19T20:39:08.028Z,95403.00
2018-07-19T20:41:37.481Z,95403.00
2018-07-19T20:44:06.987Z,95406.00
2018-07-19T20:46:37.011Z,95417.00
2018-07-19T20:49:06.440Z,95414.00
2018-07-19T20:51:35.786Z,95413.00
2018-07-19T20:54:04.974Z,95423.00
2018-07-19T20:56:34.399Z,95416.00
2018-07-19T20:59:04.555Z,95424.00
2018-07-19T21:01:33.944Z,95423.00
2018-07-19T21:04:03.380Z,95421.00
2018-07-19T21:06:32.835Z,95420.00
2018-07-19T21:09:02.264Z,95424.00
2018-07-19T21:11:31.648Z,95418.00
2018-07-19T21:14:00.976Z,95419.00
2018-07-19T21:16:30.422Z,95419.00
2018-07-19T21:18:59.576Z,95419.00
2018-07-19T21:21:29.050Z,95418.00
2018-07-19T21:23:58.783Z,95421.00
2018-07-19T21:26:28.319Z,95428.00
2018-07-19T21:28:57.849Z,95419.00
2018-07-19T21:31:27.337Z,95427.00
2018-07-19T21:33:56.745Z,95426.00
2018-07-19T21:36:26.140Z,95436.00
2018-07-19T21:38:55.594Z,95424.00
2018-07-19T21:41:25.050Z,95430.00
2018-07-19T21:43:54.133Z,95431.00
2018-07-19T21:46:23.575Z,95428.00
2018-07-19T21:48:52.883Z,95432.00
2018-07-19T21:51:22.241Z,95430.00
2018-07-19T21:53:51.625Z,95425.00
2018-07-19T21:56:20.928Z,95433.00
2018-07-19T21:58:50.322Z,95434.00
2018-07-19T22:01:19.650Z,95435.00
2018-07-19T22:03:49.461Z,95432.00
2018-07-19T22:06:19.616Z,95430.00
2018-07-19T22:08:48.960Z,95437.00
2018-07-19T22:11:18.801Z,95434.00
2018-07-19T22:13:48.184Z,95434.00
2018-07-19T22:16:17.872Z,95440.00
2018-07-19T22:18:47.705Z,95427.00
2018-07-19T22:21:17.077Z,95424.00
2018-07-19T22:23:46.555Z,95433.00
2018-07-19T22:26:16.117Z,95430.00
2018-07-19T22:28:45.484Z,95437.00
2018-07-19T22:31:14.826Z,95433.00
2018-07-19T22:33:44.232Z,95431.00
2018-07-19T22:36:13.650Z,95431.00
2018-07-19T22:38:43.360Z,95427.00
2018-07-19T22:41:12.690Z,95429.00
2018-07-19T22:43:42.058Z,95423.00
2018-07-19T22:46:11.460Z,95422.00
2018-07-19T22:48:40.818Z,95416.00
2018-07-19T22:51:10.888Z,95426.00
2018-07-19T22:53:40.437Z,95433.00
2018-07-19T22:56:09.815Z,95424.00
2018-07-19T22:58:39.270Z,95426.00
2018-07-19T23:01:09.306Z,95421.00
2018-07-19T23:03:39.244Z,95422.00
2018-07-19T23:06:08.652Z,95413.00
2018-07-19T23:08:37.688Z,95419.00
2018-07-19T23:11:07.182Z,95419.00
2018-07-19T23:13:36.601Z,95414.00
2018-07-19T23:16:06.042Z,95416.00
2018-07-19T23:18:35.369Z,95417.00
2018-07-19T23:21:04.934Z,95425.00
2018-07-19T23:23:34.377Z,95416.00
2018-07-19T23:26:03.905Z,95419.00
2018-07-19T23:28:33.339Z,95419.00
2018-07-19T23:31:02.785Z,95416.00
2018-07-19T23:33:32.139Z,95414.00
2018-07-19T23:36:06.121Z,95417.00
2018-07-19T23:38:40.327Z,95418.00
2018-07-19T23:41:16.180Z,95411.00
2018-07-19T23:43:48.930Z,95417.00
2018-07-19T23:46:19.884Z,95411.00
2018-07-19T23:48:49.776Z,95408.00
2018-07-19T23:51:19.318Z,95407.00
2018-07-19T23:53:48.767Z,95396.00
2018-07-19T23:56:18.181Z,95397.00
2018-07-19T23:58:47.578Z,95390.00
